Time;durP1;ratioP1;P1;durP2;ratioP2;P2;SDS_P1;SDS_P2;PMS_P1;PMS_P2;Temp;Humidity;BMP_temperature;BMP_pressure;BME280_temperature;BME280_humidity;BME280_pressure;Samples;Min_cycle;Max_cycle;Signal;HPM_P1;HPM_P2
2022/07/26 00:00:12;;;;;;;1.87;1.50;;;24.50;54.10;;;;;;938298;151;27455;-74
2022/07/26 00:02:38;;;;;;;2.35;1.85;;;24.50;54.10;;;;;;939197;151;27410;-73
2022/07/26 00:05:04;;;;;;;1.62;1.42;;;24.50;54.10;;;;;;939436;151;27342;-74
2022/07/26 00:07:31;;;;;;;4.55;1.90;;;24.40;54.10;;;;;;938615;151;27337;-75
2022/07/26 00:09:57;;;;;;;2.47;1.67;;;24.30;54.10;;;;;;939941;151;27356;-76
2022/07/26 00:12:24;;;;;;;2.67;1.70;;;24.30;54.20;;;;;;940696;151;27450;-75
2022/07/26 00:14:50;;;;;;;1.52;1.40;;;24.30;54.20;;;;;;941551;151;27321;-74
2022/07/26 00:17:17;;;;;;;4.40;1.87;;;24.20;54.20;;;;;;938903;151;28081;-74
2022/07/26 00:19:44;;;;;;;2.33;1.92;;;24.10;54.30;;;;;;940723;151;27491;-74
2022/07/26 00:24:55;;;;;;;2.42;1.50;;;24.00;54.40;;;;;;941246;151;27466;-73
2022/07/26 00:27:21;;;;;;;1.55;1.45;;;23.90;54.30;;;;;;938186;151;28382;-74
2022/07/26 00:29:48;;;;;;;2.80;1.57;;;23.80;54.40;;;;;;940070;151;27414;-73
2022/07/26 00:32:14;;;;;;;3.40;2.45;;;23.80;54.50;;;;;;940112;149;27310;-74
2022/07/26 00:34:41;;;;;;;4.60;1.85;;;23.70;54.60;;;;;;939969;149;27398;-74
2022/07/26 00:37:08;;;;;;;2.10;1.50;;;23.70;54.70;;;;;;939491;149;27435;-75
2022/07/26 00:39:34;;;;;;;1.70;1.60;;;23.60;54.90;;;;;;938332;149;27411;-74
2022/07/26 00:42:01;;;;;;;3.00;1.65;;;23.50;55.00;;;;;;937154;149;27389;-73
2022/07/26 00:44:39;;;;;;;3.20;2.00;;;23.40;55.70;;;;;;938994;149;27337;-74
2022/07/26 00:47:06;;;;;;;3.22;1.50;;;23.30;55.70;;;;;;939459;149;27369;-74
2022/07/26 00:49:33;;;;;;;2.25;1.75;;;23.20;55.20;;;;;;938082;149;27377;-73
2022/07/26 00:51:59;;;;;;;2.05;1.90;;;23.20;55.50;;;;;;938188;149;27876;-74
2022/07/26 00:54:26;;;;;;;5.95;3.00;;;23.10;55.60;;;;;;939234;149;27337;-74
2022/07/26 00:56:52;;;;;;;1.90;1.70;;;23.00;55.80;;;;;;939073;149;27403;-74
2022/07/26 00:59:19;;;;;;;2.15;1.90;;;22.90;56.00;;;;;;937219;149;27325;-74
2022/07/26 01:01:46;;;;;;;3.83;2.00;;;22.80;56.20;;;;;;937867;149;27850;-75
2022/07/26 01:04:12;;;;;;;3.12;2.08;;;22.70;56.30;;;;;;939673;148;27384;-73
2022/07/26 01:06:39;;;;;;;2.17;1.77;;;22.70;56.60;;;;;;936470;149;28614;-74
2022/07/26 01:09:05;;;;;;;1.85;1.60;;;22.60;56.70;;;;;;938963;149;27865;-74
2022/07/26 01:11:32;;;;;;;5.37;3.25;;;22.50;57.00;;;;;;937727;149;27286;-74
2022/07/26 01:13:59;;;;;;;2.17;1.62;;;22.40;57.10;;;;;;938857;149;27362;-74
2022/07/26 01:16:25;;;;;;;2.83;1.90;;;22.30;57.30;;;;;;938005;149;27414;-73
2022/07/26 01:18:52;;;;;;;1.90;1.70;;;22.20;57.50;;;;;;938468;149;27369;-73
2022/07/26 01:21:20;;;;;;;2.17;1.92;;;22.10;57.60;;;;;;938726;149;27306;-74
2022/07/26 01:23:45;;;;;;;2.42;1.62;;;22.10;57.90;;;;;;938714;149;27994;-74
2022/07/26 01:26:11;;;;;;;4.05;2.10;;;22.00;58.10;;;;;;939035;149;27359;-74
2022/07/26 01:28:38;;;;;;;3.33;2.30;;;22.00;58.50;;;;;;939496;149;27441;-73
2022/07/26 01:31:05;;;;;;;2.12;1.90;;;21.90;58.70;;;;;;938182;149;27373;-74
2022/07/26 01:33:31;;;;;;;2.37;2.10;;;21.90;58.90;;;;;;943141;148;27363;-73
2022/07/26 01:35:58;;;;;;;1.87;1.62;;;21.90;59.00;;;;;;943012;148;27438;-74
2022/07/26 01:38:24;;;;;;;1.70;1.60;;;21.80;59.70;;;;;;942157;148;27469;-75
2022/07/26 01:40:51;;;;;;;2.02;1.85;;;21.80;59.20;;;;;;942579;148;27376;-76
2022/07/26 01:43:18;;;;;;;2.35;1.95;;;21.80;59.30;;;;;;943184;148;27363;-74
2022/07/26 01:45:44;;;;;;;1.62;1.52;;;21.70;59.30;;;;;;942520;148;28824;-73
2022/07/26 01:48:11;;;;;;;2.27;2.08;;;21.80;59.50;;;;;;944251;148;27374;-74
2022/07/26 01:50:37;;;;;;;2.65;2.02;;;21.70;59.60;;;;;;943403;148;27335;-74
2022/07/26 01:53:04;;;;;;;6.10;2.10;;;21.60;60.60;;;;;;944752;148;27737;-75
2022/07/26 01:55:31;;;;;;;1.87;1.50;;;21.60;59.90;;;;;;944293;148;27490;-73
2022/07/26 01:57:57;;;;;;;2.90;1.60;;;21.60;60.00;;;;;;943126;148;27421;-74
2022/07/26 02:00:24;;;;;;;3.65;1.90;;;21.50;60.00;;;;;;943181;148;27785;-73
2022/07/26 02:02:50;;;;;;;2.42;2.00;;;21.40;60.10;;;;;;941407;148;27374;-74
2022/07/26 02:05:17;;;;;;;4.17;2.20;;;21.40;60.40;;;;;;943550;148;27360;-74
2022/07/26 02:07:43;;;;;;;2.90;2.00;;;21.30;60.60;;;;;;943961;148;27396;-74
2022/07/26 02:10:10;;;;;;;2.35;2.08;;;21.30;60.70;;;;;;942648;148;27381;-73
2022/07/26 02:12:37;;;;;;;3.12;1.90;;;21.20;60.90;;;;;;943444;148;28365;-73
2022/07/26 02:15:03;;;;;;;2.70;2.12;;;21.10;61.00;;;;;;941553;148;27321;-74
2022/07/26 02:17:30;;;;;;;2.83;2.30;;;21.00;61.20;;;;;;942109;148;27430;-75
2022/07/26 02:19:56;;;;;;;1.90;1.77;;;21.00;61.70;;;;;;943508;148;27344;-76
2022/07/26 02:22:23;;;;;;;2.35;1.98;;;20.90;61.70;;;;;;943324;148;27385;-74
2022/07/26 02:24:50;;;;;;;2.95;1.80;;;20.80;62.00;;;;;;943903;148;27376;-77
2022/07/26 02:27:16;;;;;;;4.37;2.15;;;20.80;62.10;;;;;;943031;148;27377;-76
2022/07/26 02:29:43;;;;;;;4.17;2.02;;;20.70;62.40;;;;;;943292;148;27936;-75
2022/07/26 02:32:12;;;;;;;2.40;2.12;;;20.70;62.70;;;;;;943455;148;27389;-75
2022/07/26 02:34:36;;;;;;;2.20;2.00;;;20.60;62.80;;;;;;940376;151;27797;-75
2022/07/26 02:37:03;;;;;;;2.20;2.00;;;20.60;63.20;;;;;;937317;151;27378;-75
2022/07/26 02:39:29;;;;;;;2.17;2.00;;;20.60;63.30;;;;;;938813;151;27352;-76
2022/07/26 02:41:56;;;;;;;2.20;2.00;;;20.60;63.50;;;;;;939570;151;27454;-75
2022/07/26 02:44:22;;;;;;;2.08;1.82;;;20.60;63.60;;;;;;942100;149;27674;-75
2022/07/26 02:46:49;;;;;;;2.92;1.80;;;20.70;63.80;;;;;;939030;151;27434;-75
2022/07/26 02:49:15;;;;;;;2.20;2.00;;;20.70;63.90;;;;;;939299;151;27371;-75
2022/07/26 02:51:42;;;;;;;3.33;1.98;;;20.70;64.00;;;;;;939608;149;27415;-75
2022/07/26 02:54:09;;;;;;;2.87;1.75;;;20.70;64.00;;;;;;940538;151;27340;-75
2022/07/26 02:56:35;;;;;;;2.58;1.98;;;20.80;64.10;;;;;;939303;151;27418;-75
2022/07/26 02:59:02;;;;;;;1.82;1.70;;;20.80;64.20;;;;;;941693;151;27425;-75
2022/07/26 03:01:28;;;;;;;2.15;1.80;;;20.90;64.20;;;;;;939840;151;27438;-75
2022/07/26 03:03:55;;;;;;;2.83;1.92;;;20.90;64.20;;;;;;938343;151;27437;-75
2022/07/26 03:06:22;;;;;;;2.35;1.80;;;20.90;64.00;;;;;;939695;151;27352;-75
2022/07/26 03:08:48;;;;;;;2.83;2.17;;;21.00;64.10;;;;;;941346;151;27284;-75
2022/07/26 03:11:15;;;;;;;3.52;1.85;;;21.00;64.10;;;;;;939882;151;27305;-75
2022/07/26 03:13:41;;;;;;;3.70;1.90;;;21.10;64.10;;;;;;938646;151;27901;-75
2022/07/26 03:16:08;;;;;;;3.33;1.60;;;21.10;64.00;;;;;;939375;151;27887;-75
2022/07/26 03:18:35;;;;;;;1.70;1.60;;;21.20;63.90;;;;;;938929;151;27276;-75
2022/07/26 03:21:01;;;;;;;2.62;1.92;;;21.20;63.80;;;;;;938407;151;27340;-75
2022/07/26 03:23:32;;;;;;;3.02;1.75;;;21.20;63.70;;;;;;940553;151;27353;-75
2022/07/26 03:25:54;;;;;;;3.55;1.67;;;21.20;63.60;;;;;;939067;151;27333;-75
2022/07/26 03:28:21;;;;;;;2.00;1.70;;;21.20;63.60;;;;;;940714;151;27372;-76
2022/07/26 03:30:47;;;;;;;2.30;2.10;;;21.20;63.80;;;;;;937983;151;27439;-75
2022/07/26 03:33:14;;;;;;;2.12;1.90;;;21.20;63.80;;;;;;937976;149;27461;-75
2022/07/26 03:35:41;;;;;;;2.58;1.80;;;21.20;63.90;;;;;;937707;149;27347;-75
2022/07/26 03:38:07;;;;;;;2.20;1.80;;;21.20;63.90;;;;;;939301;149;27442;-75
2022/07/26 03:40:34;;;;;;;2.15;2.02;;;21.20;64.00;;;;;;938686;149;27353;-75
2022/07/26 03:43:00;;;;;;;2.95;1.98;;;21.30;64.10;;;;;;940145;149;27523;-75
2022/07/26 03:45:28;;;;;;;2.70;2.08;;;21.30;64.30;;;;;;938596;149;27409;-75
2022/07/26 03:47:54;;;;;;;2.95;1.92;;;21.30;64.30;;;;;;938525;149;27808;-75
2022/07/26 03:50:20;;;;;;;2.10;2.00;;;21.20;64.40;;;;;;938898;149;27286;-76
2022/07/26 03:52:47;;;;;;;2.55;2.20;;;21.30;64.50;;;;;;937957;149;27433;-75
2022/07/26 03:57:58;;;;;;;5.03;2.02;;;21.30;64.60;;;;;;938678;149;27368;-75
2022/07/26 04:00:25;;;;;;;2.20;2.00;;;21.40;64.50;;;;;;939983;149;27451;-75
2022/07/26 04:02:52;;;;;;;2.92;1.95;;;21.40;64.50;;;;;;938864;149;27306;-75
2022/07/26 04:05:18;;;;;;;2.22;2.02;;;21.40;64.60;;;;;;938540;149;27423;-75
2022/07/26 04:07:45;;;;;;;3.65;2.42;;;21.40;64.60;;;;;;937375;149;27471;-75
2022/07/26 04:10:11;;;;;;;2.35;2.17;;;21.40;64.70;;;;;;936312;149;27357;-75
2022/07/26 04:12:38;;;;;;;2.47;2.08;;;21.40;64.80;;;;;;936530;148;27325;-75
2022/07/26 04:15:05;;;;;;;2.60;2.40;;;21.50;65.00;;;;;;938075;149;27330;-75
2022/07/26 04:17:37;;;;;;;2.92;2.10;;;21.50;64.90;;;;;;936365;149;27319;-75
2022/07/26 04:20:05;;;;;;;2.15;1.90;;;21.50;64.90;;;;;;935370;149;27446;-75
2022/07/26 04:22:30;;;;;;;2.05;1.85;;;21.60;64.80;;;;;;936434;149;27373;-75
2022/07/26 04:24:57;;;;;;;7.67;2.40;;;21.60;64.90;;;;;;938704;149;27459;-75
2022/07/26 04:27:24;;;;;;;3.33;2.05;;;21.60;65.10;;;;;;939385;149;27338;-75
2022/07/26 04:29:50;;;;;;;2.35;2.08;;;21.70;65.20;;;;;;940015;149;27302;-76
2022/07/26 04:32:17;;;;;;;2.60;1.95;;;21.70;65.30;;;;;;938784;149;27286;-75
2022/07/26 04:34:43;;;;;;;3.75;2.33;;;21.70;65.30;;;;;;937455;150;27580;-75
2022/07/26 04:37:10;;;;;;;3.33;2.15;;;21.70;65.40;;;;;;937012;151;27452;-76
2022/07/26 04:39:36;;;;;;;2.77;2.20;;;21.80;65.40;;;;;;940041;151;27415;-75
2022/07/26 04:42:03;;;;;;;2.47;2.12;;;21.80;65.50;;;;;;940946;149;27376;-75
2022/07/26 04:44:30;;;;;;;2.30;2.10;;;21.80;65.60;;;;;;938888;151;27478;-75
2022/07/26 04:46:56;;;;;;;2.98;2.05;;;21.90;65.70;;;;;;938413;151;27432;-75
2022/07/26 04:49:23;;;;;;;2.35;2.15;;;21.90;65.80;;;;;;939536;151;27349;-75
2022/07/26 04:51:49;;;;;;;4.08;2.30;;;22.00;66.00;;;;;;938830;149;27389;-75
2022/07/26 04:54:19;;;;;;;3.90;2.33;;;22.00;66.10;;;;;;939870;149;27411;-75
2022/07/26 04:56:43;;;;;;;4.60;2.20;;;22.10;66.00;;;;;;937824;151;27452;-75
2022/07/26 04:59:09;;;;;;;2.40;2.20;;;22.20;66.10;;;;;;939334;151;27420;-75
2022/07/26 05:01:36;;;;;;;3.67;2.30;;;22.30;66.00;;;;;;940205;151;27386;-76
2022/07/26 05:04:02;;;;;;;2.40;2.08;;;22.30;65.70;;;;;;937735;151;27353;-75
2022/07/26 05:06:31;;;;;;;2.12;1.92;;;22.40;65.60;;;;;;937787;151;27425;-75
2022/07/26 05:08:55;;;;;;;2.45;1.90;;;22.50;65.70;;;;;;939778;151;27340;-75
2022/07/26 05:11:22;;;;;;;2.10;2.00;;;22.60;66.00;;;;;;939883;151;27401;-75
2022/07/26 05:13:49;;;;;;;2.70;1.40;;;22.80;66.40;;;;;;939949;151;27380;-75
2022/07/26 05:16:15;;;;;;;3.52;1.98;;;23.10;66.70;;;;;;941623;151;27350;-75
2022/07/26 05:18:42;;;;;;;1.92;1.50;;;23.50;67.50;;;;;;939514;151;27469;-75
2022/07/26 05:21:09;;;;;;;1.92;1.60;;;24.10;67.40;;;;;;938944;151;27350;-75
2022/07/26 05:23:35;;;;;;;5.33;1.80;;;24.80;67.00;;;;;;939008;151;27413;-75
2022/07/26 05:26:02;;;;;;;2.37;1.77;;;25.50;66.90;;;;;;938807;151;27436;-75
2022/07/26 05:28:28;;;;;;;2.67;2.10;;;26.30;66.00;;;;;;938385;151;27460;-76
2022/07/26 05:30:55;;;;;;;2.10;1.90;;;27.00;64.60;;;;;;937836;151;28413;-76
2022/07/26 05:33:21;;;;;;;3.30;1.52;;;27.80;63.20;;;;;;938636;151;27306;-76
2022/07/26 05:35:48;;;;;;;1.90;1.50;;;28.50;61.70;;;;;;938634;150;27378;-76
2022/07/26 05:38:15;;;;;;;3.10;1.65;;;29.20;59.80;;;;;;939830;149;27525;-76
2022/07/26 05:40:41;;;;;;;1.90;1.80;;;29.80;58.40;;;;;;937483;151;27892;-76
2022/07/26 05:43:08;;;;;;;2.50;1.72;;;30.20;57.10;;;;;;939162;151;27387;-76
2022/07/26 05:45:34;;;;;;;3.20;1.72;;;30.60;56.30;;;;;;938047;151;27469;-76
2022/07/26 05:48:01;;;;;;;4.08;1.98;;;31.00;56.10;;;;;;939133;151;27258;-76
2022/07/26 05:50:28;;;;;;;6.60;1.90;;;31.40;55.80;;;;;;938731;151;27338;-76
2022/07/26 05:52:54;;;;;;;3.77;2.02;;;32.00;55.30;;;;;;937227;151;27394;-76
2022/07/26 05:55:21;;;;;;;1.60;1.47;;;32.50;54.50;;;;;;939967;151;27497;-76
2022/07/26 05:57:47;;;;;;;2.37;1.60;;;33.00;53.30;;;;;;938825;151;27326;-76
2022/07/26 06:00:14;;;;;;;4.15;1.37;;;33.50;52.40;;;;;;938589;151;27359;-76
2022/07/26 06:02:40;;;;;;;1.40;1.30;;;34.10;51.70;;;;;;939350;151;27346;-76
2022/07/26 06:05:07;;;;;;;1.32;1.10;;;34.70;51.00;;;;;;939367;151;26330;-76
2022/07/26 06:07:34;;;;;;;3.22;1.55;;;35.20;50.20;;;;;;938011;151;26357;-75
2022/07/26 06:10:00;;;;;;;1.02;0.98;;;35.80;49.10;;;;;;941194;151;28783;-75
2022/07/26 06:12:27;;;;;;;2.47;1.37;;;36.30;48.00;;;;;;939010;148;26214;-75
2022/07/26 06:14:53;;;;;;;2.90;1.52;;;36.80;47.20;;;;;;939917;151;26713;-75
2022/07/26 06:17:20;;;;;;;2.30;1.02;;;37.20;46.20;;;;;;940684;151;26280;-75
2022/07/26 06:19:47;;;;;;;3.65;0.90;;;37.60;45.20;;;;;;939246;151;26289;-75
2022/07/26 06:22:13;;;;;;;2.60;1.00;;;37.90;44.60;;;;;;940568;151;26350;-75
2022/07/26 06:24:40;;;;;;;2.70;0.95;;;38.20;44.00;;;;;;938873;151;26190;-75
2022/07/26 06:27:07;;;;;;;0.93;0.75;;;38.50;43.60;;;;;;939537;151;26754;-76
2022/07/26 06:29:33;;;;;;;2.95;0.90;;;38.80;43.00;;;;;;939146;148;26247;-75
2022/07/26 06:32:00;;;;;;;1.17;0.78;;;39.20;42.30;;;;;;937516;151;26261;-76
2022/07/26 06:34:26;;;;;;;0.90;0.62;;;39.50;41.50;;;;;;939667;151;26273;-75
2022/07/26 06:36:53;;;;;;;1.47;0.90;;;39.80;41.10;;;;;;940697;148;26293;-76
2022/07/26 06:39:19;;;;;;;1.17;0.93;;;40.20;40.40;;;;;;938128;151;26238;-76
2022/07/26 06:41:46;;;;;;;0.60;0.45;;;40.40;39.60;;;;;;941098;149;26322;-76
2022/07/26 06:44:13;;;;;;;1.82;0.90;;;40.70;39.10;;;;;;938692;149;26230;-76
2022/07/26 06:46:39;;;;;;;2.08;0.98;;;40.90;38.80;;;;;;938536;149;26784;-76
2022/07/26 06:49:06;;;;;;;1.67;1.00;;;41.30;38.50;;;;;;940353;151;26259;-76
2022/07/26 06:51:32;;;;;;;1.12;0.80;;;41.60;38.00;;;;;;938611;151;26300;-76
2022/07/26 06:53:59;;;;;;;3.77;0.72;;;41.90;37.00;;;;;;938755;151;26226;-76
2022/07/26 06:56:26;;;;;;;3.47;1.00;;;42.10;36.50;;;;;;940763;149;26250;-76
2022/07/26 06:58:54;;;;;;;2.15;1.17;;;42.20;35.80;;;;;;938904;148;26281;-75
2022/07/26 07:01:19;;;;;;;2.72;1.20;;;42.20;34.90;;;;;;939677;151;26254;-76
2022/07/26 07:03:46;;;;;;;0.82;0.70;;;42.00;34.20;;;;;;938035;149;26319;-75
2022/07/26 07:06:12;;;;;;;3.15;1.00;;;41.70;33.80;;;;;;938256;151;26210;-75
2022/07/26 07:08:39;;;;;;;1.17;0.88;;;41.30;33.60;;;;;;940560;149;26199;-75
2022/07/26 07:11:05;;;;;;;1.57;1.10;;;40.90;33.70;;;;;;939528;151;26314;-76
2022/07/26 07:13:32;;;;;;;1.62;0.55;;;40.50;34.10;;;;;;940897;151;26382;-75
2022/07/26 07:15:58;;;;;;;1.25;0.70;;;40.30;34.60;;;;;;939248;151;28300;-75
2022/07/26 07:18:25;;;;;;;1.70;1.02;;;40.40;35.10;;;;;;940500;151;26175;-76
2022/07/26 07:20:52;;;;;;;1.02;0.88;;;40.60;35.40;;;;;;940410;151;26647;-75
2022/07/26 07:23:21;;;;;;;1.65;1.40;;;40.90;35.10;;;;;;939958;151;26334;-75
2022/07/26 07:25:45;;;;;;;1.87;0.72;;;41.20;35.30;;;;;;939009;148;26236;-76
2022/07/26 07:28:12;;;;;;;1.32;0.60;;;41.60;34.30;;;;;;940184;148;26258;-76
2022/07/26 07:30:38;;;;;;;2.90;0.80;;;42.00;33.90;;;;;;939412;148;26245;-75
2022/07/26 07:33:06;;;;;;;1.42;0.70;;;42.30;33.30;;;;;;940546;148;26305;-76
2022/07/26 07:35:31;;;;;;;2.08;0.98;;;42.70;33.00;;;;;;938190;148;26251;-76
2022/07/26 07:37:58;;;;;;;1.98;0.93;;;43.00;32.60;;;;;;939554;151;27741;-76
2022/07/26 07:40:25;;;;;;;3.12;0.80;;;43.20;32.10;;;;;;939253;151;26256;-76
2022/07/26 07:42:51;;;;;;;1.30;0.88;;;43.50;31.60;;;;;;939128;151;26399;-76
2022/07/26 07:45:18;;;;;;;1.65;0.80;;;43.50;31.00;;;;;;940514;151;26243;-76
2022/07/26 07:47:44;;;;;;;1.25;1.15;;;43.50;30.50;;;;;;939656;148;26351;-76
2022/07/26 07:50:11;;;;;;;1.25;1.10;;;43.30;30.10;;;;;;938861;151;26242;-75
2022/07/26 07:52:38;;;;;;;1.17;0.75;;;42.90;29.90;;;;;;940785;151;26305;-76
2022/07/26 07:55:04;;;;;;;1.50;0.88;;;42.40;29.60;;;;;;940964;148;26343;-76
2022/07/26 07:57:31;;;;;;;2.47;0.90;;;41.90;29.70;;;;;;941181;149;26716;-76
2022/07/26 07:59:57;;;;;;;1.45;1.00;;;41.40;30.40;;;;;;940556;151;26336;-77
2022/07/26 08:02:24;;;;;;;0.98;0.70;;;41.20;31.10;;;;;;940697;149;26369;-76
2022/07/26 08:04:51;;;;;;;2.17;1.05;;;41.20;31.60;;;;;;924250;154;26197;-75
2022/07/26 08:07:17;;;;;;;1.45;0.88;;;41.20;31.30;;;;;;924887;154;26296;-75
2022/07/26 08:09:44;;;;;;;1.25;0.60;;;41.30;31.00;;;;;;926929;154;26267;-76
2022/07/26 08:12:10;;;;;;;1.27;0.78;;;41.40;30.90;;;;;;922203;151;26288;-76
2022/07/26 08:14:37;;;;;;;1.02;0.70;;;41.50;30.60;;;;;;924333;154;26247;-76
2022/07/26 08:17:03;;;;;;;1.10;0.62;;;41.50;30.30;;;;;;939246;151;26242;-76
2022/07/26 08:19:30;;;;;;;1.57;0.95;;;41.40;30.00;;;;;;941576;149;26254;-76
2022/07/26 08:21:57;;;;;;;1.25;0.70;;;41.20;29.90;;;;;;938391;151;26349;-76
2022/07/26 08:24:23;;;;;;;1.12;0.75;;;41.10;30.30;;;;;;939632;151;27854;-76
2022/07/26 08:26:52;;;;;;;0.90;0.70;;;41.00;30.30;;;;;;940116;151;26254;-76
2022/07/26 08:29:16;;;;;;;1.75;0.70;;;41.00;30.00;;;;;;941195;148;26416;-76
2022/07/26 08:31:43;;;;;;;1.35;0.82;;;40.90;29.90;;;;;;939200;151;26299;-76
2022/07/26 08:34:10;;;;;;;1.32;0.40;;;40.50;29.20;;;;;;938498;151;26265;-75
2022/07/26 08:36:36;;;;;;;1.82;0.85;;;40.20;29.40;;;;;;930577;149;26319;-76
2022/07/26 08:39:03;;;;;;;1.70;0.78;;;39.80;29.90;;;;;;935015;149;26358;-76
2022/07/26 08:41:29;;;;;;;1.10;0.60;;;39.60;30.60;;;;;;938914;149;26361;-76
2022/07/26 08:43:56;;;;;;;2.67;0.80;;;39.70;31.20;;;;;;936802;149;26217;-75
2022/07/26 08:46:22;;;;;;;0.50;0.50;;;40.10;31.40;;;;;;937481;149;26265;-75
2022/07/26 08:48:49;;;;;;;1.77;0.80;;;40.50;30.90;;;;;;936782;149;26281;-76
2022/07/26 08:51:16;;;;;;;1.00;0.85;;;40.70;30.00;;;;;;936281;149;26280;-76
2022/07/26 08:53:42;;;;;;;3.20;1.20;;;40.70;29.50;;;;;;935891;149;26245;-75
2022/07/26 08:56:09;;;;;;;1.30;0.90;;;40.40;29.20;;;;;;938572;149;26217;-76
2022/07/26 08:58:35;;;;;;;1.87;1.20;;;40.00;29.30;;;;;;935606;149;26304;-76
2022/07/26 09:01:02;;;;;;;1.17;0.80;;;39.60;29.40;;;;;;937768;149;26300;-76
2022/07/26 09:03:30;;;;;;;2.47;1.15;;;39.30;29.90;;;;;;934931;149;26230;-75
2022/07/26 09:05:59;;;;;;;1.47;1.12;;;39.10;30.20;;;;;;935194;149;26284;-76
2022/07/26 09:08:22;;;;;;;1.10;0.62;;;39.10;30.50;;;;;;934777;149;26249;-76
2022/07/26 09:10:48;;;;;;;1.85;0.78;;;39.10;30.80;;;;;;937081;149;26249;-76
2022/07/26 09:13:15;;;;;;;1.70;0.78;;;39.40;30.90;;;;;;936378;149;26404;-75
2022/07/26 09:15:42;;;;;;;1.65;0.85;;;39.70;31.20;;;;;;935850;149;26364;-76
2022/07/26 09:18:08;;;;;;;2.55;0.98;;;39.90;30.00;;;;;;937888;149;27296;-76
2022/07/26 09:20:35;;;;;;;1.15;0.62;;;39.80;29.70;;;;;;934852;149;26228;-76
2022/07/26 09:23:04;;;;;;;2.12;1.15;;;39.60;29.20;;;;;;937827;149;27815;-76
2022/07/26 09:25:31;;;;;;;1.02;0.82;;;39.20;29.10;;;;;;937006;149;27950;-76
2022/07/26 09:27:58;;;;;;;3.15;1.22;;;38.70;29.30;;;;;;937874;149;26285;-76
2022/07/26 09:30:24;;;;;;;1.50;0.70;;;38.30;29.80;;;;;;935108;149;26528;-76
2022/07/26 09:32:59;;;;;;;0.62;0.60;;;38.10;30.30;;;;;;936068;149;26366;-76
2022/07/26 09:35:26;;;;;;;0.62;0.60;;;38.00;30.70;;;;;;935757;149;27442;-76
2022/07/26 09:37:52;;;;;;;0.62;0.60;;;38.20;31.00;;;;;;936967;149;27483;-76
2022/07/26 09:40:19;;;;;;;4.33;0.80;;;38.40;31.00;;;;;;938101;149;27677;-76
2022/07/26 09:43:00;;;;;;;3.70;1.10;;;38.60;30.60;;;;;;935361;149;26338;-75
2022/07/26 09:45:27;;;;;;;0.88;0.50;;;38.70;30.10;;;;;;936433;149;26215;-76
2022/07/26 09:47:54;;;;;;;0.85;0.68;;;38.50;29.80;;;;;;937268;149;26290;-76
2022/07/26 09:50:20;;;;;;;2.00;0.60;;;38.30;29.80;;;;;;936580;149;27878;-76
2022/07/26 09:52:56;;;;;;;1.12;0.72;;;38.00;30.00;;;;;;937988;149;26349;-76
2022/07/26 09:55:23;;;;;;;0.95;0.82;;;37.80;30.00;;;;;;916982;149;26318;-76
2022/07/26 09:57:49;;;;;;;1.05;0.78;;;37.50;29.90;;;;;;936815;149;27330;-75
2022/07/26 10:00:16;;;;;;;2.27;0.80;;;37.10;29.80;;;;;;934331;149;27413;-76
2022/07/26 10:02:42;;;;;;;4.85;0.65;;;36.70;29.90;;;;;;936137;149;27355;-77
2022/07/26 10:05:09;;;;;;;0.93;0.50;;;36.10;30.00;;;;;;937370;149;27370;-79
2022/07/26 10:07:36;;;;;;;2.20;0.78;;;35.50;30.30;;;;;;939911;148;27468;-80
2022/07/26 10:10:03;;;;;;;1.45;0.80;;;34.90;30.70;;;;;;939997;148;27415;-78
2022/07/26 10:12:29;;;;;;;1.32;0.68;;;34.30;31.30;;;;;;938353;148;27330;-78
2022/07/26 10:14:56;;;;;;;1.20;1.10;;;33.80;31.70;;;;;;937220;148;27329;-78
2022/07/26 10:17:28;;;;;;;3.92;1.22;;;33.40;32.40;;;;;;937301;148;27506;-77
2022/07/26 10:19:54;;;;;;;0.85;0.75;;;33.10;33.00;;;;;;939578;148;27396;-78
2022/07/26 10:22:29;;;;;;;0.68;0.55;;;32.80;33.60;;;;;;940169;148;27306;-79
2022/07/26 10:24:53;;;;;;;0.93;0.72;;;32.60;34.00;;;;;;939453;148;27735;-78
2022/07/26 10:27:41;;;;;;;1.52;0.62;;;32.60;34.30;;;;;;937163;148;27367;-77
2022/07/26 10:30:20;;;;;;;1.20;1.10;;;32.60;34.90;;;;;;938298;148;27465;-79
2022/07/26 10:32:58;;;;;;;0.82;0.78;;;32.70;34.80;;;;;;931160;150;27330;-78
2022/07/26 10:35:39;;;;;;;1.00;0.57;;;32.90;34.60;;;;;;934674;150;27292;-79
2022/07/26 10:38:03;;;;;;;2.08;0.78;;;33.10;34.50;;;;;;932289;150;27399;-77
2022/07/26 10:40:29;;;;;;;0.72;0.70;;;33.30;34.40;;;;;;936283;148;27323;-79
2022/07/26 10:43:14;;;;;;;1.12;0.90;;;33.40;34.30;;;;;;937944;148;28657;-79
2022/07/26 10:45:40;;;;;;;1.85;1.02;;;33.40;34.10;;;;;;939373;148;27345;-79
2022/07/26 10:48:10;;;;;;;0.78;0.70;;;33.40;34.00;;;;;;938218;148;27458;-79
2022/07/26 10:50:36;;;;;;;2.12;0.78;;;33.30;34.30;;;;;;937188;148;27348;-79
2022/07/26 10:53:02;;;;;;;1.60;0.82;;;33.20;34.50;;;;;;927468;150;28368;-80
2022/07/26 10:55:29;;;;;;;0.70;0.47;;;33.20;34.70;;;;;;938551;148;27439;-78
2022/07/26 10:57:55;;;;;;;1.52;0.75;;;33.20;34.70;;;;;;930420;150;27823;-79
2022/07/26 11:00:22;;;;;;;2.40;0.62;;;33.30;34.70;;;;;;937663;151;27293;-77
2022/07/26 11:02:54;;;;;;;1.00;0.70;;;33.40;34.60;;;;;;919491;150;27357;-79
2022/07/26 11:05:21;;;;;;;1.20;0.88;;;33.40;34.30;;;;;;938318;148;28281;-79
2022/07/26 11:07:54;;;;;;;1.07;0.78;;;33.30;34.00;;;;;;937208;148;27644;-79
2022/07/26 11:10:23;;;;;;;1.32;0.70;;;33.20;33.90;;;;;;939064;148;27317;-79
2022/07/26 11:12:59;;;;;;;1.02;0.82;;;33.10;34.00;;;;;;936738;148;27930;-78
2022/07/26 11:15:25;;;;;;;1.47;0.70;;;33.00;34.20;;;;;;936122;148;27448;-79
2022/07/26 11:17:52;;;;;;;1.85;0.80;;;32.80;34.20;;;;;;939821;148;27341;-79
2022/07/26 11:20:25;;;;;;;1.20;0.72;;;32.70;34.40;;;;;;935956;148;27358;-77
2022/07/26 11:22:51;;;;;;;0.98;0.90;;;32.50;34.30;;;;;;938124;148;27417;-78
2022/07/26 11:25:18;;;;;;;1.10;0.78;;;32.30;34.50;;;;;;937976;148;27399;-79
2022/07/26 11:27:59;;;;;;;0.98;0.88;;;32.10;34.70;;;;;;937991;148;27333;-78
2022/07/26 11:30:26;;;;;;;0.50;0.50;;;31.90;34.70;;;;;;939250;148;27711;-78
2022/07/26 11:32:53;;;;;;;0.50;0.50;;;31.70;34.90;;;;;;940031;148;27317;-77
2022/07/26 11:35:19;;;;;;;0.82;0.50;;;31.40;35.00;;;;;;936857;148;27290;-79
2022/07/26 11:37:55;;;;;;;0.70;0.70;;;31.20;34.80;;;;;;936709;148;27452;-78
2022/07/26 11:40:43;;;;;;;0.47;0.47;;;31.10;35.80;;;;;;935463;148;27308;-78
2022/07/26 11:43:10;;;;;;;1.35;0.78;;;31.00;36.00;;;;;;938679;148;27334;-78
2022/07/26 11:45:36;;;;;;;1.47;0.42;;;30.90;36.10;;;;;;940277;148;27372;-76
2022/07/26 11:48:03;;;;;;;0.98;0.75;;;30.90;36.30;;;;;;936435;148;27341;-77
2022/07/26 11:50:30;;;;;;;1.07;0.88;;;30.90;36.50;;;;;;938360;148;27887;-78
2022/07/26 11:52:56;;;;;;;1.25;0.55;;;30.90;36.70;;;;;;936805;148;27307;-79
2022/07/26 11:55:28;;;;;;;0.88;0.57;;;31.00;36.90;;;;;;940034;148;27330;-78
2022/07/26 11:57:55;;;;;;;0.82;0.65;;;31.10;37.10;;;;;;939624;148;27366;-79
2022/07/26 12:00:22;;;;;;;1.30;0.93;;;31.30;37.10;;;;;;938173;148;28949;-78
2022/07/26 12:02:48;;;;;;;0.40;0.40;;;31.50;37.00;;;;;;938153;148;27408;-78
2022/07/26 12:05:17;;;;;;;2.33;0.75;;;31.70;36.90;;;;;;937681;148;27411;-78
2022/07/26 12:07:55;;;;;;;1.00;0.93;;;32.00;36.90;;;;;;940322;148;27354;-77
2022/07/26 12:10:22;;;;;;;1.20;0.70;;;32.20;36.60;;;;;;937629;148;27361;-80
2022/07/26 12:12:49;;;;;;;2.33;0.70;;;32.30;36.00;;;;;;939912;148;27396;-78
2022/07/26 12:15:15;;;;;;;0.57;0.57;;;32.40;35.60;;;;;;940249;149;27410;-79
2022/07/26 12:17:57;;;;;;;2.27;0.72;;;32.40;35.30;;;;;;941065;149;27330;-78
2022/07/26 12:20:26;;;;;;;0.50;0.50;;;32.40;35.30;;;;;;940046;149;27675;-77
2022/07/26 12:22:59;;;;;;;1.50;0.47;;;32.20;35.30;;;;;;937442;149;27358;-79
2022/07/26 12:25:25;;;;;;;0.88;0.75;;;32.20;35.60;;;;;;938796;149;27375;-75
2022/07/26 12:27:52;;;;;;;0.90;0.78;;;32.10;35.80;;;;;;938873;149;27429;-76
2022/07/26 12:30:19;;;;;;;0.65;0.47;;;32.10;36.10;;;;;;939644;149;27410;-75
2022/07/26 12:32:47;;;;;;;1.30;0.60;;;32.20;36.30;;;;;;938973;149;27354;-76
2022/07/26 12:35:12;;;;;;;0.62;0.60;;;32.20;36.00;;;;;;937454;149;27492;-76
2022/07/26 12:37:48;;;;;;;1.77;0.82;;;32.30;35.80;;;;;;939239;149;27875;-75
2022/07/26 12:40:17;;;;;;;0.93;0.65;;;32.30;35.70;;;;;;940161;149;27378;-75
2022/07/26 12:42:50;;;;;;;1.80;0.80;;;32.30;35.60;;;;;;937220;149;27352;-76
2022/07/26 12:45:25;;;;;;;1.72;0.75;;;32.20;35.50;;;;;;938755;149;27453;-76
2022/07/26 12:47:52;;;;;;;1.85;1.00;;;32.10;35.40;;;;;;941360;149;27480;-75
2022/07/26 12:50:18;;;;;;;1.55;0.55;;;32.00;35.20;;;;;;941178;149;27367;-75
2022/07/26 12:52:45;;;;;;;1.17;0.72;;;31.80;35.20;;;;;;938243;149;27389;-75